createdAt,value
2018-09-02T18:22:26.065Z,76.93
2018-09-02T18:26:30.990Z,76.67
2018-09-02T18:30:34.737Z,77.27
2018-09-02T18:34:39.330Z,76.50
2018-09-02T18:38:43.121Z,76.46
2018-09-02T18:42:46.872Z,77.29
2018-09-02T18:46:51.570Z,76.75
2018-09-02T18:50:55.543Z,76.86
2018-09-02T18:54:59.252Z,76.55
2018-09-02T18:59:05.117Z,76.48
2018-09-02T19:03:09.581Z,77.08
2018-09-02T19:07:18.139Z,77.22
2018-09-02T19:11:22.622Z,76.79
2018-09-02T19:15:26.459Z,76.44
2018-09-02T19:19:29.979Z,75.91
2018-09-02T19:23:41.230Z,75.82
2018-09-02T19:27:44.870Z,76.59
2018-09-02T19:31:48.594Z,76.39
2018-09-02T19:35:53.366Z,76.44
2018-09-02T19:39:57.903Z,76.00
2018-09-02T19:44:04.227Z,76.29
2018-09-02T19:48:07.830Z,76.34
2018-09-02T19:52:11.506Z,76.48
2018-09-02T19:56:16.219Z,76.64
2018-09-02T20:00:19.922Z,77.15
2018-09-02T20:04:24.780Z,77.44
2018-09-02T20:08:30.002Z,77.69
2018-09-02T20:12:37.513Z,77.21
2018-09-02T20:16:41.112Z,77.24
2018-09-02T20:20:44.885Z,77.91
2018-09-02T20:24:48.663Z,77.10
2018-09-02T20:28:53.453Z,77.57
2018-09-02T20:32:58.340Z,77.54
2018-09-02T20:37:02.172Z,77.96
2018-09-02T20:41:06.250Z,78.24
2018-09-02T20:45:10.498Z,77.93
2018-09-02T20:49:15.553Z,78.31
2018-09-02T20:53:19.226Z,78.51
2018-09-02T20:57:22.785Z,78.43
2018-09-02T21:01:26.479Z,79.46
2018-09-02T21:05:30.113Z,80.38
2018-09-02T21:09:33.827Z,80.50
2018-09-02T21:13:38.151Z,80.14
2018-09-02T21:17:42.273Z,80.46
2018-09-02T21:21:45.844Z,80.75
2018-09-02T21:25:49.582Z,80.93
2018-09-02T21:29:53.202Z,80.68
2018-09-02T21:33:57.011Z,81.42
2018-09-02T21:38:02.558Z,80.63
2018-09-02T21:42:06.121Z,80.90
2018-09-02T21:46:09.793Z,79.25
2018-09-02T21:50:13.910Z,78.40
2018-09-02T21:54:17.606Z,78.18
2018-09-02T21:58:22.321Z,78.99
2018-09-02T22:02:25.953Z,78.91
2018-09-02T22:06:30.682Z,78.36
2018-09-02T22:10:34.360Z,77.89
2018-09-02T22:14:38.110Z,78.12
2018-09-02T22:18:41.747Z,77.70
2018-09-02T22:22:45.450Z,77.68
2018-09-02T22:26:49.041Z,77.81
2018-09-02T22:30:52.625Z,77.79
2018-09-02T22:34:56.183Z,77.66
2018-09-02T22:38:59.774Z,77.90
2018-09-02T22:43:03.382Z,78.21
2018-09-02T22:47:07.278Z,78.07
2018-09-02T22:51:11.183Z,78.27
2018-09-02T22:55:14.773Z,77.83
2018-09-02T22:59:18.370Z,78.07
2018-09-02T23:03:21.962Z,77.86
2018-09-02T23:07:26.138Z,78.27
2018-09-02T23:11:29.795Z,78.31
2018-09-02T23:15:33.461Z,78.42
2018-09-02T23:19:37.144Z,78.24
2018-09-02T23:23:40.879Z,78.45
2018-09-02T23:27:44.579Z,78.57
2018-09-02T23:31:48.275Z,78.36
2018-09-02T23:35:52.356Z,78.57
2018-09-02T23:39:55.894Z,78.50
2018-09-02T23:43:59.579Z,78.61
2018-09-02T23:48:03.098Z,78.48
2018-09-02T23:52:06.828Z,78.47
2018-09-02T23:56:10.518Z,78.77
